Time;durP1;ratioP1;P1;durP2;ratioP2;P2;SDS_P1;SDS_P2;PMS_P1;PMS_P2;Temp;Humidity;BMP_temperature;BMP_pressure;BME280_temperature;BME280_humidity;BME280_pressure;Samples;Min_cycle;Max_cycle;Signal;HPM_P1;HPM_P2
2022/11/03 00:02:15;;;;;;;7.10;1.55;;;;;;;12.36;62.35;97504.09;4916730;29;20491;-71
2022/11/03 00:04:40;;;;;;;6.63;1.55;;;;;;;12.47;62.84;97504.97;4966536;28;20368;-72
2022/11/03 00:07:06;;;;;;;6.78;1.55;;;;;;;12.64;62.43;97513.47;4951464;29;20039;-72
2022/11/03 00:09:31;;;;;;;5.53;1.08;;;;;;;12.59;61.65;97510.81;4951113;29;20046;-71
2022/11/03 00:11:56;;;;;;;4.30;1.33;;;;;;;12.49;61.29;97508.09;4935912;29;20186;-72
2022/11/03 00:14:22;;;;;;;2.40;1.20;;;;;;;12.39;60.93;97508.81;4948646;29;20575;-71
2022/11/03 00:16:47;;;;;;;3.03;0.88;;;;;;;12.31;60.78;97511.88;4935034;29;20324;-72
2022/11/03 00:19:15;;;;;;;3.42;1.40;;;;;;;12.35;60.45;97513.75;4915626;29;20024;-71
2022/11/03 00:21:40;;;;;;;5.35;1.25;;;;;;;12.31;60.01;97506.66;4951603;29;20109;-72
2022/11/03 00:24:06;;;;;;;2.50;1.10;;;;;;;12.31;60.48;97507.44;4950979;29;20085;-72
2022/11/03 00:26:33;;;;;;;4.97;1.10;;;;;;;12.28;60.42;97501.91;4931537;29;20039;-72
2022/11/03 00:29:01;;;;;;;4.82;1.58;;;;;;;12.20;60.88;97499.75;4952959;29;20031;-71
2022/11/03 00:31:29;;;;;;;4.85;1.27;;;;;;;12.20;60.56;97500.56;4951511;29;20089;-72
2022/11/03 00:33:54;;;;;;;4.15;1.30;;;;;;;12.17;60.65;97501.81;4951310;29;20039;-72
2022/11/03 00:36:25;;;;;;;4.25;1.40;;;;;;;12.29;60.84;97498.28;4951223;29;20062;-72
2022/11/03 00:38:50;;;;;;;3.67;1.15;;;;;;;12.18;60.66;97492.97;4935406;29;20035;-72
2022/11/03 00:41:19;;;;;;;3.50;1.25;;;;;;;12.25;60.36;97491.97;4949763;29;20042;-72
2022/11/03 00:43:45;;;;;;;3.78;1.20;;;;;;;12.14;60.74;97491.88;4934108;29;20031;-71
2022/11/03 00:46:11;;;;;;;8.07;1.00;;;;;;;12.13;60.95;97486.88;4946993;28;20419;-72
2022/11/03 00:48:37;;;;;;;3.65;1.20;;;;;;;12.09;61.35;97483.97;4964157;28;20059;-71
2022/11/03 00:51:13;;;;;;;5.60;1.00;;;;;;;12.40;61.45;97486.88;4951132;29;20035;-72
2022/11/03 00:53:40;;;;;;;5.47;1.17;;;;;;;12.35;61.64;97486.84;4952333;29;20089;-71
2022/11/03 00:56:06;;;;;;;7.85;1.38;;;;;;;12.32;61.87;97477.69;4951814;28;20178;-72
2022/11/03 00:58:32;;;;;;;3.55;1.25;;;;;;;12.45;62.71;97480.91;4961980;28;20507;-72
2022/11/03 01:01:06;;;;;;;5.82;1.13;;;;;;;12.61;61.62;97474.00;4967638;28;20101;-73
2022/11/03 01:03:33;;;;;;;6.70;1.07;;;;;;;12.56;62.37;97472.16;4918832;29;20038;-72
2022/11/03 01:08:42;;;;;;;3.88;0.90;;;;;;;12.62;61.23;97459.91;4950867;29;20435;-71
2022/11/03 01:13:54;;;;;;;5.10;1.05;;;;;;;12.63;62.84;97456.22;4950259;29;20023;-70
2022/11/03 01:16:19;;;;;;;4.47;1.35;;;;;;;12.68;62.70;97444.00;4950396;29;20490;-71
2022/11/03 01:18:45;;;;;;;5.30;1.40;;;;;;;12.73;62.64;97446.66;4948599;29;20605;-71
2022/11/03 01:21:10;;;;;;;2.33;1.00;;;;;;;12.77;62.15;97441.72;4952015;28;20038;-71
2022/11/03 01:23:36;;;;;;;13.10;1.77;;;;;;;12.83;61.88;97450.38;4933962;29;20098;-72
2022/11/03 01:26:09;;;;;;;5.75;1.95;;;;;;;12.90;61.32;97451.75;4966228;28;20070;-72
2022/11/03 01:28:39;;;;;;;5.03;1.00;;;;;;;12.90;62.36;97445.72;4949757;29;20028;-71
2022/11/03 01:31:06;;;;;;;3.75;1.08;;;;;;;12.85;61.83;97437.84;4950064;29;20674;-72
2022/11/03 01:33:32;;;;;;;4.30;1.10;;;;;;;12.84;62.23;97442.28;4950319;29;20031;-71
2022/11/03 01:35:57;;;;;;;5.70;1.40;;;;;;;12.85;62.47;97433.41;4949609;29;20046;-72
2022/11/03 01:38:23;;;;;;;4.90;0.88;;;;;;;12.86;62.04;97429.75;4918222;29;20487;-72
2022/11/03 01:40:48;;;;;;;3.22;1.42;;;;;;;12.87;62.10;97431.34;4934417;29;20043;-72
2022/11/03 01:43:18;;;;;;;5.07;1.00;;;;;;;12.86;61.99;97428.97;4933809;29;20503;-72
2022/11/03 01:45:46;;;;;;;4.70;0.80;;;;;;;12.84;61.51;97431.81;4963053;28;20062;-72
2022/11/03 01:48:12;;;;;;;4.22;1.08;;;;;;;12.73;61.60;97424.97;4955633;28;20443;-72
2022/11/03 01:50:39;;;;;;;4.35;1.00;;;;;;;12.71;62.23;97425.22;4934238;29;20294;-72
2022/11/03 01:53:05;;;;;;;3.22;0.80;;;;;;;12.63;61.63;97420.47;4934238;29;20023;-72
2022/11/03 01:55:38;;;;;;;4.30;1.25;;;;;;;12.67;61.86;97408.47;4948642;28;20031;-72
2022/11/03 01:58:09;;;;;;;5.15;1.38;;;;;;;12.58;62.14;97411.78;4932240;29;20031;-72
2022/11/03 02:00:35;;;;;;;3.38;1.10;;;;;;;12.55;62.44;97403.44;4953036;28;20035;-74
2022/11/03 02:03:00;;;;;;;3.85;0.90;;;;;;;12.57;61.95;97402.41;4934911;29;20451;-71
2022/11/03 02:05:26;;;;;;;3.22;1.17;;;;;;;12.54;62.35;97401.88;4959734;28;20123;-71
2022/11/03 02:07:59;;;;;;;5.28;1.30;;;;;;;12.65;61.87;97391.47;4948793;29;20034;-72
2022/11/03 02:10:24;;;;;;;6.25;1.35;;;;;;;12.58;62.37;97393.50;4949811;29;20027;-72
2022/11/03 02:12:50;;;;;;;5.32;1.35;;;;;;;12.67;62.93;97392.00;4933112;29;20031;-72
2022/11/03 02:15:17;;;;;;;4.60;1.42;;;;;;;12.70;62.27;97381.06;4949316;29;20122;-72
2022/11/03 02:17:45;;;;;;;3.35;1.35;;;;;;;12.71;62.37;97374.78;4932226;29;20432;-71
2022/11/03 02:20:17;;;;;;;7.10;0.98;;;;;;;12.76;62.37;97377.44;4933637;29;20086;-71
2022/11/03 02:23:09;;;;;;;4.90;0.95;;;;;;;12.89;62.79;97366.53;4949050;29;20567;-71
2022/11/03 02:25:45;;;;;;;5.28;1.10;;;;;;;12.95;62.84;97363.94;4932656;29;20384;-72
2022/11/03 02:28:14;;;;;;;2.22;1.08;;;;;;;12.89;62.71;97366.53;4979012;28;20035;-71
2022/11/03 02:30:45;;;;;;;4.30;1.00;;;;;;;12.91;62.77;97361.81;4949188;29;20035;-71
2022/11/03 02:33:19;;;;;;;3.05;0.90;;;;;;;12.86;62.67;97359.19;4949010;29;20118;-71
2022/11/03 02:36:01;;;;;;;6.03;1.30;;;;;;;13.03;62.81;97350.38;4916879;29;20042;-72
2022/11/03 02:38:28;;;;;;;4.25;1.05;;;;;;;12.96;62.53;97342.00;4947971;29;20035;-71
2022/11/03 02:40:54;;;;;;;2.40;1.00;;;;;;;12.93;62.78;97338.06;4948407;29;20023;-72
2022/11/03 02:43:21;;;;;;;4.75;1.40;;;;;;;12.93;62.71;97330.22;4949270;29;20043;-72
2022/11/03 02:45:47;;;;;;;4.57;0.88;;;;;;;12.89;62.86;97318.72;4945560;28;20602;-72
2022/11/03 02:48:14;;;;;;;7.95;2.13;;;;;;;12.91;62.98;97317.41;4929185;29;20118;-72
2022/11/03 02:50:39;;;;;;;3.45;1.25;;;;;;;12.96;62.90;97315.88;4928385;29;20384;-71
2022/11/03 02:53:04;;;;;;;3.45;1.38;;;;;;;13.00;62.47;97315.06;4933163;29;20562;-72
2022/11/03 02:55:56;;;;;;;3.13;1.10;;;;;;;13.23;61.87;97313.84;4946965;29;20038;-71
2022/11/03 02:58:36;;;;;;;3.67;1.00;;;;;;;13.21;61.83;97305.50;4932135;29;20066;-73
2022/11/03 03:01:17;;;;;;;3.75;2.35;;;;;;;13.08;61.58;97300.75;4950445;29;20391;-72
2022/11/03 03:03:54;;;;;;;3.35;1.00;;;;;;;13.06;61.68;97308.06;4932084;29;20059;-72
2022/11/03 03:06:27;;;;;;;5.10;0.90;;;;;;;13.00;61.98;97307.22;4949250;28;20046;-72
2022/11/03 03:08:56;;;;;;;8.27;1.63;;;;;;;12.92;62.20;97303.31;4933566;29;20058;-72
2022/11/03 03:11:35;;;;;;;4.07;1.05;;;;;;;12.87;62.19;97300.66;4948731;29;20070;-71
2022/11/03 03:14:19;;;;;;;4.03;1.20;;;;;;;13.04;62.11;97290.00;4948794;29;20487;-71
2022/11/03 03:16:58;;;;;;;7.22;2.17;;;;;;;13.01;62.44;97284.53;4948411;29;20027;-72
2022/11/03 03:19:33;;;;;;;3.92;1.08;;;;;;;13.03;62.91;97279.81;4933292;29;20681;-71
2022/11/03 03:22:01;;;;;;;8.95;2.85;;;;;;;13.01;62.40;97279.28;4949479;29;20383;-72
2022/11/03 03:24:33;;;;;;;4.00;1.13;;;;;;;13.07;62.06;97278.25;4949042;29;20447;-72
2022/11/03 03:27:00;;;;;;;4.88;1.23;;;;;;;13.06;61.81;97272.25;4933304;29;20136;-72
2022/11/03 03:29:30;;;;;;;3.70;1.02;;;;;;;13.05;62.22;97269.88;4949101;29;20573;-72
2022/11/03 03:31:59;;;;;;;5.38;1.23;;;;;;;13.05;62.04;97269.88;4915396;29;20038;-71
2022/11/03 03:34:26;;;;;;;5.63;1.40;;;;;;;12.98;62.43;97270.13;4962149;28;20075;-72
2022/11/03 03:36:53;;;;;;;3.45;0.93;;;;;;;13.02;62.00;97257.31;4949255;29;20053;-71
2022/11/03 03:39:20;;;;;;;4.53;1.10;;;;;;;13.02;62.32;97257.31;4917033;29;20039;-72
2022/11/03 03:41:47;;;;;;;2.22;0.80;;;;;;;13.02;62.43;97252.91;4949251;29;20093;-72
2022/11/03 03:44:14;;;;;;;6.25;1.25;;;;;;;13.03;62.50;97245.84;4932655;29;20031;-71
2022/11/03 03:46:48;;;;;;;5.95;1.10;;;;;;;13.11;62.51;97243.50;4931382;29;20031;-71
2022/11/03 03:49:14;;;;;;;4.68;1.50;;;;;;;13.06;62.64;97232.25;4937138;29;20031;-71
2022/11/03 03:51:40;;;;;;;4.25;0.90;;;;;;;13.05;63.04;97233.28;4941876;29;20031;-71
2022/11/03 03:54:05;;;;;;;3.10;1.20;;;;;;;13.02;62.76;97229.38;4931916;29;20034;-72
2022/11/03 03:56:42;;;;;;;2.97;0.80;;;;;;;13.15;62.80;97233.31;4917447;29;20079;-71
2022/11/03 03:59:08;;;;;;;6.20;1.45;;;;;;;13.06;62.74;97234.88;4948447;29;20039;-72
2022/11/03 04:01:33;;;;;;;3.35;0.88;;;;;;;13.04;62.54;97229.09;4948230;29;20047;-72
2022/11/03 04:03:59;;;;;;;4.70;1.27;;;;;;;13.11;62.32;97224.41;4949826;28;20138;-72
2022/11/03 04:06:24;;;;;;;2.50;0.90;;;;;;;13.09;62.27;97229.91;4933174;29;20062;-72
2022/11/03 04:08:49;;;;;;;6.85;1.42;;;;;;;13.10;62.39;97225.44;4948963;29;20031;-71
2022/11/03 04:22:16;;;;;;;2.63;1.10;;;;;;;12.66;60.59;97216.22;4952139;29;20038;-71
2022/11/03 04:24:49;;;;;;;2.13;1.15;;;;;;;12.63;60.61;97223.75;4952494;29;20042;-72
2022/11/03 04:27:24;;;;;;;6.28;1.70;;;;;;;12.68;61.10;97219.34;4935764;29;20031;-72
2022/11/03 04:29:49;;;;;;;;;;;;;;;12.76;60.93;97225.88;4951315;29;20042;-72
2022/11/03 04:32:16;;;;;;;4.05;0.90;;;;;;;12.61;61.09;97207.56;4951564;29;19914;-72
2022/11/03 04:34:43;;;;;;;4.55;0.95;;;;;;;12.58;61.71;97219.31;4953097;29;20034;-71
2022/11/03 04:37:11;;;;;;;6.25;1.00;;;;;;;12.62;61.33;97219.59;4952436;29;20089;-71
2022/11/03 04:39:36;;;;;;;2.20;1.15;;;;;;;12.55;62.21;97225.81;4951784;29;20110;-72
2022/11/03 04:42:09;;;;;;;3.78;1.10;;;;;;;12.55;62.50;97215.38;4934970;29;20118;-71
2022/11/03 04:44:34;;;;;;;3.83;1.25;;;;;;;12.54;62.75;97215.63;4932152;28;20042;-71
2022/11/03 04:47:00;;;;;;;4.68;1.73;;;;;;;12.54;62.87;97202.56;4947238;29;20027;-71
2022/11/03 04:49:25;;;;;;;3.20;1.27;;;;;;;12.58;62.94;97202.84;4967591;28;20035;-71
2022/11/03 04:51:50;;;;;;;4.20;1.52;;;;;;;12.60;62.75;97203.38;4952719;29;20118;-72
2022/11/03 04:54:18;;;;;;;6.00;1.33;;;;;;;12.68;63.32;97195.03;4951619;29;20031;-72
2022/11/03 04:56:44;;;;;;;4.20;0.95;;;;;;;12.66;62.78;97194.50;4935159;29;20031;-72
2022/11/03 04:59:12;;;;;;;2.60;1.00;;;;;;;12.67;62.77;97196.09;4952970;29;20040;-72
2022/11/03 05:01:37;;;;;;;3.67;1.20;;;;;;;12.63;62.82;97189.78;4951480;29;20048;-71
2022/11/03 05:04:07;;;;;;;4.03;0.93;;;;;;;12.70;62.64;97185.13;4950123;29;20066;-71
2022/11/03 05:06:33;;;;;;;3.92;1.20;;;;;;;12.61;63.13;97171.00;4935942;29;20225;-71
2022/11/03 05:09:01;;;;;;;3.88;1.60;;;;;;;12.71;63.34;97165.78;4950090;29;20027;-71
2022/11/03 05:11:31;;;;;;;8.57;1.50;;;;;;;12.66;63.16;97171.00;4970747;28;20054;-72
2022/11/03 05:14:03;;;;;;;5.10;1.50;;;;;;;12.76;63.49;97155.34;4951029;28;20384;-71
2022/11/03 05:16:30;;;;;;;2.50;1.50;;;;;;;12.72;63.47;97156.91;4935334;29;20039;-72
2022/11/03 05:18:55;;;;;;;5.57;1.58;;;;;;;12.70;63.54;97151.19;4952239;29;20143;-72
2022/11/03 05:21:24;;;;;;;7.80;2.15;;;;;;;12.76;63.19;97147.50;4934821;29;20122;-71
2022/11/03 05:23:52;;;;;;;4.30;1.42;;;;;;;12.78;63.84;97144.66;4934638;29;20054;-73
2022/11/03 05:26:20;;;;;;;5.85;1.60;;;;;;;12.82;64.20;97127.41;4967379;28;20046;-72
2022/11/03 05:28:58;;;;;;;5.72;1.90;;;;;;;12.98;63.64;97133.44;4951198;29;20063;-72
2022/11/03 05:31:33;;;;;;;6.43;1.73;;;;;;;13.05;63.83;97123.50;4919209;29;20023;-72
2022/11/03 05:34:00;;;;;;;4.43;1.35;;;;;;;13.02;63.81;97124.03;4932452;29;20043;-72
2022/11/03 05:36:28;;;;;;;5.38;1.95;;;;;;;13.03;64.03;97123.75;4935089;29;20046;-72
2022/11/03 05:39:30;;;;;;;4.38;1.73;;;;;;;13.21;63.35;97119.84;4951013;29;20385;-72
2022/11/03 05:41:59;;;;;;;7.80;2.22;;;;;;;13.14;63.65;97116.69;4958083;28;20035;-71
2022/11/03 05:44:36;;;;;;;5.32;1.85;;;;;;;13.16;63.02;97116.44;4951321;28;20035;-72
2022/11/03 05:47:06;;;;;;;4.35;1.83;;;;;;;13.11;62.85;97112.00;4945902;29;20122;-72
2022/11/03 05:49:32;;;;;;;4.18;2.13;;;;;;;13.10;62.79;97105.97;4962389;28;20042;-72
2022/11/03 05:51:57;;;;;;;4.30;1.45;;;;;;;13.09;62.74;97107.06;4934788;29;20043;-71
2022/11/03 05:54:25;;;;;;;4.00;1.70;;;;;;;13.11;62.50;97106.78;4934424;29;20042;-72
2022/11/03 05:56:50;;;;;;;3.70;1.60;;;;;;;13.03;62.73;97102.06;4934667;29;20575;-72
2022/11/03 05:59:19;;;;;;;6.32;1.40;;;;;;;13.08;62.68;97100.25;4949977;29;20114;-71
2022/11/03 06:01:45;;;;;;;3.17;1.10;;;;;;;13.06;62.94;97097.09;4942321;29;20042;-72
2022/11/03 06:04:23;;;;;;;2.67;1.15;;;;;;;13.21;62.85;97100.75;4933116;29;20502;-72
2022/11/03 06:07:20;;;;;;;4.88;1.65;;;;;;;13.32;62.62;97097.13;4933426;29;20027;-72
2022/11/03 06:09:45;;;;;;;3.67;1.70;;;;;;;13.07;62.58;97092.66;4931576;29;20594;-73
2022/11/03 06:12:16;;;;;;;4.03;1.67;;;;;;;13.15;62.91;97086.91;4917396;29;20034;-73
2022/11/03 06:14:41;;;;;;;2.97;1.45;;;;;;;12.99;62.63;97080.09;4948503;29;20110;-72
2022/11/03 06:17:12;;;;;;;4.50;1.70;;;;;;;13.09;62.95;97080.91;4949600;29;20535;-71
2022/11/03 06:19:41;;;;;;;3.40;1.38;;;;;;;13.04;62.16;97069.66;4943426;29;20050;-72
2022/11/03 06:22:22;;;;;;;3.38;1.33;;;;;;;13.16;62.49;97072.00;4932170;29;20410;-72
2022/11/03 06:24:48;;;;;;;3.67;1.80;;;;;;;12.97;63.07;97069.13;4949451;28;20369;-71
2022/11/03 06:27:23;;;;;;;5.07;1.58;;;;;;;13.09;62.63;97069.66;4950280;29;20110;-72
2022/11/03 06:29:56;;;;;;;2.65;1.45;;;;;;;13.06;62.95;97064.97;4948933;29;20075;-72
2022/11/03 06:32:21;;;;;;;2.55;1.48;;;;;;;12.97;62.48;97063.91;4932358;29;20043;-72
2022/11/03 06:34:55;;;;;;;5.72;1.70;;;;;;;13.07;62.94;97064.72;4932481;29;20612;-72
2022/11/03 06:37:26;;;;;;;5.05;1.70;;;;;;;13.10;62.54;97055.53;4916900;29;20444;-73
2022/11/03 06:40:10;;;;;;;1.77;1.27;;;;;;;13.17;62.59;97058.66;4948831;28;20043;-72
2022/11/03 06:42:38;;;;;;;3.25;1.60;;;;;;;13.02;63.06;97066.53;4946707;28;20296;-72
2022/11/03 06:45:19;;;;;;;3.60;1.48;;;;;;;13.16;62.35;97051.09;4946761;28;20031;-72
2022/11/03 06:47:44;;;;;;;5.43;1.65;;;;;;;13.06;62.88;97052.69;4941565;29;20036;-72
2022/11/03 06:50:29;;;;;;;4.30;1.75;;;;;;;13.21;62.64;97053.69;4948881;29;20046;-71
2022/11/03 06:52:56;;;;;;;3.20;1.38;;;;;;;13.16;62.76;97058.94;4943791;29;20491;-72
2022/11/03 06:55:26;;;;;;;5.82;2.15;;;;;;;13.20;62.81;97052.91;4948435;29;20129;-73
2022/11/03 06:57:57;;;;;;;5.75;1.83;;;;;;;13.17;62.36;97056.06;4949474;29;20035;-72
2022/11/03 07:00:24;;;;;;;5.38;1.73;;;;;;;13.18;62.56;97054.22;4949607;29;20340;-72
2022/11/03 07:02:52;;;;;;;4.28;1.58;;;;;;;13.16;62.31;97046.66;4915842;29;20023;-71
2022/11/03 07:05:25;;;;;;;9.05;2.80;;;;;;;13.21;63.02;97041.44;4950484;29;20542;-72
2022/11/03 07:07:52;;;;;;;6.57;1.58;;;;;;;13.14;63.15;97046.13;4949508;29;20452;-72
2022/11/03 07:10:18;;;;;;;3.38;1.80;;;;;;;13.18;62.89;97036.72;4949967;29;20039;-72
2022/11/03 07:12:43;;;;;;;4.82;2.00;;;;;;;13.20;62.63;97029.38;4948461;29;20085;-71
2022/11/03 07:15:22;;;;;;;4.40;1.92;;;;;;;13.35;62.72;97025.19;4938726;29;20033;-74
2022/11/03 07:17:47;;;;;;;3.95;1.55;;;;;;;13.30;63.14;97021.53;4928343;29;20741;-71
2022/11/03 07:20:15;;;;;;;5.32;2.28;;;;;;;13.41;62.72;97021.53;4949814;28;20046;-73
2022/11/03 07:22:40;;;;;;;5.47;1.77;;;;;;;13.43;63.20;97008.97;4963717;28;20546;-71
2022/11/03 07:25:13;;;;;;;4.40;1.45;;;;;;;13.59;62.72;97014.91;4932542;29;20047;-72
2022/11/03 07:27:39;;;;;;;3.03;1.77;;;;;;;13.55;62.80;97000.81;4964258;28;20563;-71
2022/11/03 07:30:22;;;;;;;3.88;1.80;;;;;;;13.75;62.71;96999.97;4931463;29;20035;-71
2022/11/03 07:32:51;;;;;;;5.13;1.75;;;;;;;13.81;62.59;97002.28;4962030;28;20039;-70
2022/11/03 07:35:22;;;;;;;5.45;2.10;;;;;;;13.93;62.49;96999.34;4945757;29;20763;-71
2022/11/03 07:37:50;;;;;;;3.63;1.92;;;;;;;13.89;62.07;96995.69;4949447;29;20603;-74
2022/11/03 07:40:26;;;;;;;8.55;2.95;;;;;;;13.93;62.03;96988.88;4948110;29;20039;-72
2022/11/03 07:42:56;;;;;;;6.07;2.10;;;;;;;13.99;61.73;96989.63;4948582;29;20046;-72
2022/11/03 07:45:40;;;;;;;4.28;2.10;;;;;;;14.12;61.77;96977.75;4930201;29;20031;-72
2022/11/03 07:48:32;;;;;;;4.20;1.52;;;;;;;14.14;61.48;96975.69;4940166;29;20042;-73
2022/11/03 07:51:00;;;;;;;3.58;1.67;;;;;;;14.21;61.41;96976.16;4950239;29;20039;-73
2022/11/03 07:53:36;;;;;;;3.95;1.40;;;;;;;14.41;60.74;96983.06;4946725;28;20085;-73
2022/11/03 07:56:01;;;;;;;3.28;1.67;;;;;;;14.28;60.55;96987.09;4977564;28;20126;-72
2022/11/03 07:58:37;;;;;;;4.38;1.33;;;;;;;14.41;60.70;96975.19;4950647;29;20122;-71
2022/11/03 08:01:19;;;;;;;3.10;1.23;;;;;;;14.48;60.44;96977.50;4950033;29;20031;-72
2022/11/03 08:03:46;;;;;;;2.42;0.98;;;;;;;14.45;60.40;96975.47;4948130;29;20090;-72
2022/11/03 08:06:11;;;;;;;3.58;1.20;;;;;;;14.56;59.35;96974.31;4952152;29;20499;-73
2022/11/03 08:08:37;;;;;;;4.18;1.30;;;;;;;14.66;59.40;96966.41;4934624;29;20090;-73
2022/11/03 08:11:03;;;;;;;4.55;1.10;;;;;;;14.91;58.42;96962.78;4935487;29;20054;-72
2022/11/03 08:13:28;;;;;;;4.70;1.58;;;;;;;15.07;57.57;96960.00;4934683;29;20039;-72
2022/11/03 08:15:53;;;;;;;2.13;1.23;;;;;;;15.21;57.07;96960.88;4951976;29;20035;-71
2022/11/03 08:18:19;;;;;;;5.00;1.00;;;;;;;15.31;57.09;96947.66;4945669;29;20047;-72
2022/11/03 08:20:47;;;;;;;2.97;1.17;;;;;;;15.10;57.36;96954.97;4967815;28;20035;-72
2022/11/03 08:23:12;;;;;;;3.83;0.88;;;;;;;15.40;56.65;96945.19;4966408;28;20035;-72
2022/11/03 08:25:38;;;;;;;3.13;1.10;;;;;;;15.52;56.99;96956.06;4948809;29;20040;-71
2022/11/03 08:28:03;;;;;;;3.50;1.20;;;;;;;15.47;55.50;96953.50;4979343;28;20458;-71
2022/11/03 08:30:29;;;;;;;4.88;1.08;;;;;;;15.62;56.79;96962.25;4967974;28;20583;-72
2022/11/03 08:32:55;;;;;;;3.88;1.13;;;;;;;15.79;56.46;96959.19;4952655;29;20035;-73
2022/11/03 08:35:20;;;;;;;6.45;1.75;;;;;;;15.82;55.58;96963.88;4953492;28;20043;-72
2022/11/03 08:37:45;;;;;;;2.78;1.00;;;;;;;15.84;54.87;96961.75;4935923;29;20046;-72
2022/11/03 08:40:12;;;;;;;3.42;1.30;;;;;;;15.86;55.62;96954.34;4948316;29;20273;-71
2022/11/03 08:42:37;;;;;;;4.25;1.20;;;;;;;15.86;54.89;96960.38;4948974;29;20039;-73
2022/11/03 08:45:03;;;;;;;2.67;1.15;;;;;;;15.84;56.17;96951.25;4948841;28;20043;-73
2022/11/03 08:47:28;;;;;;;1.90;0.95;;;;;;;15.88;55.93;96950.38;4951667;29;20098;-72
2022/11/03 08:49:54;;;;;;;3.70;1.10;;;;;;;15.86;55.47;96946.47;4952690;29;20042;-72
2022/11/03 08:52:20;;;;;;;2.92;1.10;;;;;;;15.46;55.98;96941.44;4935361;29;20035;-72
2022/11/03 08:54:46;;;;;;;3.90;1.30;;;;;;;15.72;56.00;96933.25;4966822;28;20035;-71
2022/11/03 08:57:11;;;;;;;3.78;1.40;;;;;;;15.83;55.89;96937.31;4935587;29;20119;-72
2022/11/03 08:59:37;;;;;;;3.38;1.70;;;;;;;15.87;55.52;96921.78;4935436;29;20035;-72
2022/11/03 09:02:02;;;;;;;2.13;1.38;;;;;;;15.79;54.35;96912.69;4950330;29;20451;-72
2022/11/03 09:04:27;;;;;;;3.63;1.10;;;;;;;15.86;55.52;96907.88;4950655;28;20035;-73
2022/11/03 09:06:53;;;;;;;5.90;1.88;;;;;;;15.95;54.29;96902.75;4952593;29;20043;-71
2022/11/03 09:09:20;;;;;;;4.88;1.45;;;;;;;15.96;54.80;96899.06;4951925;29;20035;-71
2022/11/03 09:11:46;;;;;;;5.88;1.67;;;;;;;15.87;54.65;96903.41;4950830;29;20031;-73
2022/11/03 09:14:11;;;;;;;4.25;1.65;;;;;;;15.96;54.79;96900.94;4965066;28;20480;-72
2022/11/03 09:16:36;;;;;;;5.68;1.88;;;;;;;16.05;54.03;96889.47;4951594;28;20038;-72
2022/11/03 09:19:02;;;;;;;6.97;1.67;;;;;;;15.88;54.54;96887.34;4966430;28;20491;-72
2022/11/03 09:21:27;;;;;;;4.68;2.72;;;;;;;16.12;53.75;96881.22;4934712;29;20519;-72
2022/11/03 09:23:52;;;;;;;4.32;2.15;;;;;;;16.04;54.66;96874.00;4952292;29;20086;-72
2022/11/03 09:26:18;;;;;;;5.03;1.23;;;;;;;16.14;54.49;96873.84;4950592;29;20418;-71
2022/11/03 09:28:43;;;;;;;4.80;1.15;;;;;;;15.95;54.64;96867.84;4934738;29;20030;-72
2022/11/03 09:31:08;;;;;;;3.28;1.17;;;;;;;16.07;54.39;96853.22;4950322;29;20035;-71
2022/11/03 09:33:34;;;;;;;5.63;1.40;;;;;;;16.23;54.49;96840.59;4961808;28;20046;-71
2022/11/03 09:36:01;;;;;;;2.60;1.70;;;;;;;16.27;54.77;96836.31;4934988;29;20066;-71
2022/11/03 09:38:26;;;;;;;4.35;1.20;;;;;;;16.31;53.92;96841.00;4950260;29;20063;-73
2022/11/03 09:40:51;;;;;;;6.03;1.60;;;;;;;16.53;54.17;96841.13;4966180;28;20058;-72
2022/11/03 09:43:17;;;;;;;3.17;1.25;;;;;;;16.82;52.94;96842.69;4966357;28;20035;-72
2022/11/03 09:45:42;;;;;;;3.20;1.70;;;;;;;16.53;53.15;96843.75;4949860;28;20039;-72
2022/11/03 09:48:11;;;;;;;3.03;1.45;;;;;;;17.07;53.46;96838.03;4934716;29;20031;-72
2022/11/03 09:50:37;;;;;;;4.22;1.73;;;;;;;16.87;53.24;96837.38;4950517;29;20049;-73
2022/11/03 09:53:02;;;;;;;3.60;2.35;;;;;;;16.97;52.95;96826.66;4933620;29;20114;-72
2022/11/03 09:55:27;;;;;;;4.65;1.98;;;;;;;17.01;52.24;96830.25;4952220;29;20035;-73
2022/11/03 09:57:58;;;;;;;3.63;1.83;;;;;;;17.10;51.21;96830.34;4934461;29;20660;-72
2022/11/03 10:00:25;;;;;;;4.88;1.50;;;;;;;16.99;51.86;96827.13;4949687;29;20070;-72
2022/11/03 10:02:51;;;;;;;3.65;1.73;;;;;;;17.16;51.83;96831.00;4947221;29;20042;-72
2022/11/03 10:05:21;;;;;;;7.85;1.95;;;;;;;17.07;53.87;96835.41;4957938;28;20550;-72
2022/11/03 10:07:50;;;;;;;4.07;1.65;;;;;;;16.79;51.98;96823.03;4933198;29;20545;-73
2022/11/03 10:10:18;;;;;;;2.30;1.30;;;;;;;16.80;51.92;96821.19;4948133;29;20016;-72
2022/11/03 10:12:43;;;;;;;3.42;1.45;;;;;;;16.93;52.31;96811.75;4949647;29;20550;-72
2022/11/03 10:15:16;;;;;;;6.22;1.60;;;;;;;16.88;52.83;96806.59;4950163;29;20039;-72
2022/11/03 10:17:42;;;;;;;2.92;1.20;;;;;;;17.16;51.68;96797.59;4943956;29;20506;-72
2022/11/03 10:20:13;;;;;;;3.38;1.30;;;;;;;17.15;51.67;96795.25;4949940;29;20035;-73
2022/11/03 10:22:40;;;;;;;3.28;1.35;;;;;;;17.42;51.74;96789.91;4949334;29;20549;-72
2022/11/03 10:25:27;;;;;;;4.10;1.27;;;;;;;17.68;52.01;96791.94;4948894;29;20054;-72
2022/11/03 10:28:10;;;;;;;4.03;1.83;;;;;;;17.74;51.02;96767.06;4949765;29;20118;-73
2022/11/03 10:30:56;;;;;;;3.47;1.38;;;;;;;17.76;50.65;96761.50;4949420;29;20038;-72
2022/11/03 10:33:34;;;;;;;6.25;1.75;;;;;;;17.72;50.98;96758.69;4948264;29;20067;-72
2022/11/03 10:36:24;;;;;;;1.98;1.00;;;;;;;17.75;51.00;96757.31;4947458;29;20027;-71
2022/11/03 10:38:50;;;;;;;3.70;1.17;;;;;;;17.09;50.45;96738.56;4948145;29;20050;-73
2022/11/03 10:41:19;;;;;;;3.35;1.15;;;;;;;17.40;51.08;96744.69;4933033;29;20039;-72
2022/11/03 10:44:04;;;;;;;3.95;1.10;;;;;;;17.74;49.97;96740.72;4949958;29;20027;-71
2022/11/03 10:46:30;;;;;;;4.50;1.42;;;;;;;17.55;50.36;96729.63;4929387;29;20122;-72
2022/11/03 10:49:14;;;;;;;1.90;0.90;;;;;;;17.91;50.59;96729.53;4949320;29;20066;-73
2022/11/03 10:51:45;;;;;;;1.80;1.10;;;;;;;17.72;50.02;96735.00;4932447;29;20286;-72
2022/11/03 10:54:13;;;;;;;3.25;1.08;;;;;;;17.68;50.31;96725.34;4946112;29;20063;-72
2022/11/03 10:56:39;;;;;;;2.92;1.05;;;;;;;17.71;50.68;96719.50;4962543;28;20035;-72
2022/11/03 10:59:05;;;;;;;5.47;1.42;;;;;;;17.66;50.65;96717.75;4946430;29;20035;-72
2022/11/03 11:01:30;;;;;;;1.35;0.95;;;;;;;17.62;49.19;96706.28;4932631;29;20035;-72
2022/11/03 11:03:56;;;;;;;5.22;1.35;;;;;;;17.73;49.24;96707.56;4941605;28;20098;-72
2022/11/03 11:06:27;;;;;;;2.75;0.80;;;;;;;17.63;49.08;96702.56;4945725;29;20772;-73
2022/11/03 11:08:56;;;;;;;3.78;1.83;;;;;;;17.42;49.00;96702.28;4964277;28;20041;-72
2022/11/03 11:11:22;;;;;;;3.40;1.98;;;;;;;17.50;50.20;96706.06;4913792;29;20063;-73
2022/11/03 11:14:24;;;;;;;2.72;0.90;;;;;;;17.33;50.14;96706.72;4974449;28;20039;-72
2022/11/03 11:17:01;;;;;;;2.70;1.17;;;;;;;17.40;50.08;96707.84;4945827;29;20035;-71
2022/11/03 11:19:29;;;;;;;1.90;1.50;;;;;;;17.40;51.11;96707.06;4961277;28;20039;-73
2022/11/03 11:21:55;;;;;;;2.20;1.00;;;;;;;17.34;50.52;96701.16;4947685;29;20030;-72
2022/11/03 11:24:43;;;;;;;4.28;1.25;;;;;;;17.40;50.29;96694.69;4944633;29;20710;-72
2022/11/03 11:27:33;;;;;;;2.88;1.10;;;;;;;17.63;49.86;96693.88;4932157;29;20102;-72
2022/11/03 11:30:00;;;;;;;2.28;1.70;;;;;;;17.26;50.79;96693.22;4949020;29;20114;-71
2022/11/03 11:32:38;;;;;;;4.43;1.60;;;;;;;17.42;50.10;96694.38;4949699;29;20066;-72
2022/11/03 11:35:06;;;;;;;3.72;1.30;;;;;;;17.22;50.69;96683.28;4949443;29;20118;-73
2022/11/03 11:37:33;;;;;;;3.75;1.20;;;;;;;17.43;51.17;96667.00;4949748;29;20356;-73
2022/11/03 11:39:58;;;;;;;2.25;1.20;;;;;;;17.58;51.27;96665.81;4949387;29;20036;-73
2022/11/03 11:42:24;;;;;;;5.85;1.55;;;;;;;17.55;50.78;96661.19;4965305;28;20043;-72
2022/11/03 11:44:52;;;;;;;3.00;1.10;;;;;;;17.61;51.22;96646.81;4931224;29;20074;-73
2022/11/03 11:47:24;;;;;;;4.18;1.55;;;;;;;17.77;50.61;96634.81;4950318;29;20046;-72
2022/11/03 11:50:10;;;;;;;4.15;1.40;;;;;;;18.10;50.81;96637.09;4948899;29;20035;-72
2022/11/03 11:52:46;;;;;;;3.03;1.40;;;;;;;18.05;50.16;96629.34;4948631;29;20514;-74
2022/11/03 11:55:18;;;;;;;4.97;1.75;;;;;;;18.18;48.50;96621.63;4964724;28;20035;-72
2022/11/03 11:57:43;;;;;;;3.08;1.10;;;;;;;18.23;48.53;96616.22;4949455;28;20031;-73
2022/11/03 12:00:23;;;;;;;3.33;1.25;;;;;;;18.22;48.89;96615.44;4981236;28;20676;-73
2022/11/03 12:02:50;;;;;;;3.28;1.00;;;;;;;18.40;49.35;96597.00;4932838;29;20039;-74